Plainview, Nebraska
Current Conditions -  °F | °C
As of 4:40 PM on Monday 22 Dec 2014 (Local Time) from KOFK Reporting Station
Overcast Overcast  
Wind Chill: 31°   Ceiling: 1500
Heat Index: 39°   Visibility: 9mi
Dew Point: 36°   Wind: 15mph
Humidity: 89%   Direction: 310°NW
Pressure: 29.44"   Gusts: NA
Location:  42.35°N, 97.79°W
Report Text: KOFK 222240Z AUTO 31013KT 9SM FEW009 OVC015 04/02 A2944 RMK AO2 RAB10E27 P0000 T00390022
Loading
Personal Weather Stations






























Interactive Weather Map New forecast layout! Learn more

10-Day Weather Forecast

Advertisements
Track Severe Weather on mobile